Portada
METAR-TAF:

METAR-TAF

Aeroports :

Brageirac, França

latitud: 44-49N, longitud: 000-31E, altitud: 51 m

Observació

L'informe es va fer fa 29 minuts, a les 08:30 UTC
Vent 7 kt del Sud/Sud-Oest, variant entre Sud i Oest/Sud-Oest
Temperatura 17°C
Humitat 82%
Pressió 1010 hPa
Visibilitat 10 km o més
Cel ennuvolat a una alçada de 1900 ft
Cel cobert a una alçada de 2600 ft

METAR: LFBE 060830Z AUTO 21007KT 180V240 9999 BKN019 OVC026 17/14 Q1010

Hora: 10:59 (08:59 UTC)


TAF: manca

Observacions i pronòstics meteorològics de més de 4000 aeroports (METAR i TAF).

Les estacions disponibles són els punts grocs i vermells al mapa.

Posi el ratolí al punt desitjat per veure el nom de l'estació.

Feu clic per veure les observacions i els pronòstics meteorològics.

Per canviar el mapa: feu clic els botons verds amb una creu de color negre per apropar; al botó verd amb un guió per allunyar la imatge; o en les fletxes verdes per a mapes adjacents.


METAR-TAF: